• Join FlightAware (Why Join?)
  • Login
  • US Flag 
05:34AM EST


 

Airport Tracker/Info


-or-


 

Live Flight TrackerFlight Track Log ✈ SWA17 ✈ 15-Jun-2013 ✈ KBWI - KCHS

Flight Track Log - Related Links

Times and Time Zones

All times are in EDT time to prevent confusion due to time zone crossing. See the SWA17 flight status page for this flight to view local times or setup timezone preferences in your user account.

Time Position Orientation Groundspeed Altitude Reporting Facility
EDT Latitude Longitude Course Direction KTS MPH feet Rate Location/Type
08:45AM 39.1833 -76.7167 218° Southwest 175 201 1,800  Level Potomac TRACON
08:46AM 39.1333 -76.7667 218° Southwest 256 295 3,700 1,560 Climbing Potomac TRACON
08:47AM 39.0667 -76.7000 142° Southeast 284 327 5,000 2,160 Climbing Potomac TRACON
08:49AM 38.9547 -76.6328 155° Southeast 295 339 9,800 2,700 Climbing Washington Center
08:50AM 38.8628 -76.6553 191° South 295 339 12,500 2,940 Climbing Washington Center
08:51AM 38.7647 -76.6806 191° South 335 386 15,700 3,120 Climbing Washington Center
08:52AM 38.6581 -76.7056 190° South 372 428 18,700 2,640 Climbing Washington Center
08:53AM 38.5475 -76.7253 188° South 397 457 21,100 2,100 Climbing Washington Center
08:54AM 38.4328 -76.7128 175° South 403 464 23,000 1,800 Climbing Washington Center
08:55AM 38.3119 -76.6978 174° South 425 489 24,700 1,860 Climbing Washington Center
08:56AM 38.1911 -76.6775 172° South 438 504 26,700 1,980 Climbing Washington Center
08:57AM 38.0642 -76.6597 174° South 449 517 28,700 1,620 Climbing Washington Center
08:58AM 37.9328 -76.6475 176° South 465 535 30,000 600 Climbing Washington Center
08:59AM 37.7972 -76.6667 186° South 476 548 30,000  Level Washington Center
09:00AM 37.6636 -76.6831 186° South 481 554 30,000  Level Washington Center
09:01AM 37.5278 -76.6994 185° South 481 554 30,000  Level Washington Center
09:02AM 37.3983 -76.7264 189° South 481 554 30,000  Level Washington Center
09:03AM 37.2706 -76.7819 199° South 481 554 30,000 720 Level Washington Center
09:04AM 37.1428 -76.8372 199° South 486 559 31,500 4,020 Climbing Washington Center
09:05AM 37.0128 -76.8897 198° South 486 559 38,000 1,320 Climbing Washington Center
09:06AM 36.8786 -76.9447 198° South 491 565 34,200 -1,260 Descending Washington Center
09:07AM 36.7444 -77.0019 199° South 505 581 35,500 840 Climbing Washington Center
09:08AM 36.6244 -77.0931 211° Southwest 498 573 36,000 240 Climbing Washington Center
09:09AM 36.5125 -77.1892 215° Southwest 503 579 36,000  Level Washington Center
09:10AM 36.3986 -77.2925 216° Southwest 503 579 36,100 600 Climbing Washington Center
09:11AM 36.2844 -77.3906 215° Southwest 503 579 37,300 900 Climbing Washington Center
09:12AM 36.1850 -77.4808 216° Southwest 508 585 38,000 300 Climbing Washington Center
09:13AM 36.0686 -77.5808 215° Southwest 508 585 38,000  Level Washington Center
09:14AM 35.9436 -77.6906 215° Southwest 513 590 38,000  Level Washington Center
09:15AM 35.8272 -77.7900 215° Southwest 513 590 38,000  Level Washington Center
09:16AM 35.7106 -77.8917 215° Southwest 513 590 38,000  Level Washington Center
09:17AM 35.5958 -77.9881 214° Southwest 513 590 38,000  Level Washington Center
09:18AM 35.4792 -78.0892 215° Southwest 513 590 38,000  Level Washington Center
09:19AM 35.3603 -78.1847 213° Southwest 513 590 38,000  Level Washington Center
09:20AM 35.2392 -78.2775 212° Southwest 518 596 38,000 -60 Level Washington Center
09:21AM 35.1181 -78.3700 212° Southwest 518 596 37,900 -1,800 Descending Washington Center
09:23AM 34.8331 -78.5906 212° Southwest 509 586 32,100 -2,340 Descending Jacksonville Center
09:24AM 34.7194 -78.6772 212° Southwest 498 573 30,000 -2,100 Descending Jacksonville Center
09:25AM 34.6114 -78.7581 212° Southwest 486 559 28,000 -1,020 Descending Jacksonville Center
09:26AM 34.5075 -78.8361 212° Southwest 462 532 28,000  Level Jacksonville Center
09:27AM 34.4058 -78.9189 214° Southwest 446 513 28,000 -900 Level Jacksonville Center
09:28AM 34.3083 -78.9961 213° Southwest 440 506 26,300 -1,800 Descending Jacksonville Center
09:29AM 34.2014 -79.0511 203° Southwest 433 498 24,500 -1,440 Descending Jacksonville Center
09:30AM 34.0925 -79.1011 201° Southwest 419 482 23,500 -1,020 Descending Jacksonville Center
09:31AM 33.9875 -79.1508 201° Southwest 409 471 22,500 -1,020 Descending Jacksonville Center
09:32AM 33.8844 -79.1953 200° South 404 465 21,500 -1,020 Descending Jacksonville Center
09:33AM 33.7856 -79.2419 201° Southwest 399 459 20,500 -1,200 Descending Jacksonville Center
09:34AM 33.7100 -79.2975 211° Southwest 376 433 19,200 -1,860 Descending Jacksonville Center
09:35AM 33.6181 -79.3633 211° Southwest 370 426 16,800 -2,280 Descending Jacksonville Center
09:36AM 33.5322 -79.4317 214° Southwest 376 433 14,700 -1,980 Descending Jacksonville Center
09:37AM 33.4444 -79.4972 212° Southwest 381 438 12,900 -1,800 Descending Jacksonville Center
09:38AM 33.3625 -79.5578 212° Southwest 369 425 11,100 -1,260 Descending Jacksonville Center
09:39AM 33.2867 -79.6128 211° Southwest 351 404 10,400 -1,020 Descending Jacksonville Center
09:40AM 33.2150 -79.6650 211° Southwest 321 369 9,100 -1,380 Descending Jacksonville Center
09:41AM 33.1453 -79.7147 211° Southwest 304 350 7,700 -1,500 Descending Jacksonville Center
09:42AM 33.0797 -79.7642 212° Southwest 298 343 6,200 -1,380 Descending Jacksonville Center
09:43AM 33.0122 -79.8158 213° Southwest 293 337 5,000 -1,080 Descending Jacksonville Center
09:44AM 32.9403 -79.8703 212° Southwest 293 337 4,100 -1,020 Descending Jacksonville Center
09:45AM 32.8769 -79.9219 214° Southwest 288 331 3,000 -1,140 Descending Jacksonville Center
09:47AM 32.8986 -80.0405 203° Southwest  Level Estimated
09:54AM 32.8986 -80.0405 348° North  Level Estimated
09:55AM 32.8986 -80.0405 348° North  Level Estimated
09:56AM 32.8986 -80.0405 348° North  Level Estimated
09:57AM 32.8986 -80.0405 348° North  Level Estimated
09:58AM 32.8986 -80.0405 348° North  Level Estimated
09:59AM 32.8986 -80.0405 348° North  Level Estimated
10:00AM 32.8986 -80.0405 348° North  Level Estimated